Time;durP1;ratioP1;P1;durP2;ratioP2;P2;SDS_P1;SDS_P2;PMS_P1;PMS_P2;Temp;Humidity;BMP_temperature;BMP_pressure;BME280_temperature;BME280_humidity;BME280_pressure;Samples;Min_cycle;Max_cycle;Signal;HPM_P1;HPM_P2
2023/07/10 00:01:40;;;;;;;0.47;0.47;;;17.00;99.90;;;;;;4991770;28;20227;-66
2023/07/10 00:04:17;;;;;;;0.80;0.52;;;16.90;99.90;;;;;;4991675;28;20309;-65
2023/07/10 00:06:44;;;;;;;0.50;0.50;;;16.80;99.90;;;;;;4991354;28;20219;-66
2023/07/10 00:09:10;;;;;;;0.75;0.60;;;16.70;99.90;;;;;;4991469;28;20204;-66
2023/07/10 00:11:36;;;;;;;0.60;0.60;;;16.70;99.90;;;;;;4991207;28;20206;-66
2023/07/10 00:14:06;;;;;;;0.35;0.35;;;16.60;99.90;;;;;;4973953;28;20247;-66
2023/07/10 00:16:32;;;;;;;0.57;0.47;;;16.60;99.90;;;;;;4991416;28;20692;-66
2023/07/10 00:18:58;;;;;;;0.38;0.38;;;16.60;99.90;;;;;;4991811;28;20683;-65
2023/07/10 00:21:24;;;;;;;1.35;0.47;;;16.60;99.90;;;;;;4991186;28;20242;-66
2023/07/10 00:23:50;;;;;;;0.40;0.40;;;16.60;99.90;;;;;;4990143;28;20287;-66
2023/07/10 00:26:37;;;;;;;0.40;0.40;;;16.60;99.90;;;;;;4990989;28;20702;-66
2023/07/10 00:29:16;;;;;;;2.95;1.15;;;16.60;99.90;;;;;;4973931;28;20617;-66
2023/07/10 00:31:45;;;;;;;0.35;0.35;;;16.60;99.90;;;;;;4991293;28;20601;-66
2023/07/10 00:34:15;;;;;;;0.43;0.43;;;16.60;99.90;;;;;;4991342;28;20184;-66
2023/07/10 00:36:42;;;;;;;0.55;0.50;;;16.50;99.90;;;;;;4993848;28;20190;-67
2023/07/10 00:39:10;;;;;;;1.52;0.98;;;16.40;99.90;;;;;;4993107;28;20219;-66
2023/07/10 00:41:42;;;;;;;0.30;0.30;;;16.30;99.90;;;;;;5010769;28;20234;-67
2023/07/10 00:44:09;;;;;;;0.38;0.38;;;16.20;99.90;;;;;;5012935;28;20193;-67
2023/07/10 00:46:55;;;;;;;1.02;0.95;;;16.30;99.90;;;;;;4994456;28;20196;-65
2023/07/10 00:49:31;;;;;;;0.30;0.30;;;16.30;99.90;;;;;;4993622;28;20298;-67
2023/07/10 00:52:16;;;;;;;0.38;0.32;;;16.40;99.90;;;;;;4994832;28;20200;-66
2023/07/10 00:54:49;;;;;;;3.35;0.50;;;16.50;99.90;;;;;;4994606;28;20199;-66
2023/07/10 00:57:36;;;;;;;0.25;0.25;;;16.50;99.90;;;;;;4976981;28;20200;-67
2023/07/10 01:00:17;;;;;;;0.32;0.32;;;16.50;99.90;;;;;;4994085;28;20306;-66
2023/07/10 01:02:50;;;;;;;2.28;1.25;;;16.60;99.90;;;;;;4988086;23;20684;-69
2023/07/10 01:05:18;;;;;;;0.63;0.60;;;16.60;99.90;;;;;;4992318;28;20206;-68
2023/07/10 01:07:50;;;;;;;0.50;0.50;;;16.60;99.90;;;;;;5001079;28;20211;-68
2023/07/10 01:10:16;;;;;;;0.20;0.20;;;16.60;99.90;;;;;;5013107;28;20198;-68
2023/07/10 01:12:43;;;;;;;0.32;0.32;;;16.60;99.90;;;;;;5013438;28;20194;-68
2023/07/10 01:15:11;;;;;;;0.38;0.38;;;16.60;99.90;;;;;;5013287;28;20191;-69
2023/07/10 01:17:37;;;;;;;0.85;0.50;;;16.60;99.90;;;;;;5013068;28;20698;-67
2023/07/10 01:20:34;;;;;;;0.47;0.47;;;16.60;99.90;;;;;;5013013;28;20213;-68
2023/07/10 01:23:01;;;;;;;0.40;0.40;;;16.50;99.90;;;;;;5028304;28;20190;-68
2023/07/10 01:25:31;;;;;;;0.40;0.40;;;16.40;99.90;;;;;;5012823;28;20186;-68
2023/07/10 01:27:57;;;;;;;0.22;0.22;;;16.30;99.90;;;;;;5013051;28;20202;-67
2023/07/10 01:30:33;;;;;;;0.50;0.50;;;16.20;99.90;;;;;;4994872;28;20207;-67
2023/07/10 01:33:00;;;;;;;0.70;0.70;;;16.30;99.90;;;;;;5028148;28;20198;-67
2023/07/10 01:35:29;;;;;;;6.03;1.85;;;16.30;99.90;;;;;;5012615;28;20771;-68
2023/07/10 01:37:55;;;;;;;0.30;0.30;;;16.30;99.90;;;;;;5025818;28;20221;-68
2023/07/10 01:40:28;;;;;;;0.63;0.50;;;16.20;99.90;;;;;;5031331;28;20232;-67
2023/07/10 01:42:58;;;;;;;0.45;0.40;;;16.20;99.90;;;;;;5032475;28;20198;-68
2023/07/10 01:45:26;;;;;;;0.30;0.30;;;16.20;99.90;;;;;;5032189;28;20210;-68
2023/07/10 01:47:52;;;;;;;0.25;0.25;;;16.20;99.90;;;;;;5032494;28;20596;-68
2023/07/10 01:50:19;;;;;;;0.40;0.40;;;16.20;99.90;;;;;;5032449;28;20194;-68
2023/07/10 01:52:45;;;;;;;0.30;0.30;;;16.30;99.90;;;;;;5032379;28;20209;-67
2023/07/10 01:55:13;;;;;;;0.28;0.28;;;16.30;99.90;;;;;;5031330;28;20641;-67
2023/07/10 01:57:39;;;;;;;0.38;0.38;;;16.20;99.90;;;;;;5032190;28;20825;-67
2023/07/10 02:00:06;;;;;;;0.50;0.50;;;16.10;99.90;;;;;;5031614;28;20661;-68
2023/07/10 02:02:32;;;;;;;0.65;0.60;;;16.10;99.90;;;;;;5011281;28;20199;-68
2023/07/10 02:04:57;;;;;;;1.38;1.00;;;16.10;99.90;;;;;;5012295;28;20205;-68
2023/07/10 02:07:23;;;;;;;0.30;0.30;;;16.20;99.90;;;;;;5012088;28;20669;-67
2023/07/10 02:09:49;;;;;;;0.40;0.40;;;16.20;99.90;;;;;;5012297;28;20224;-68
2023/07/10 02:12:18;;;;;;;0.65;0.63;;;16.20;99.90;;;;;;5012298;28;20677;-68
2023/07/10 02:14:45;;;;;;;0.20;0.20;;;16.20;99.90;;;;;;5012482;28;20668;-68
2023/07/10 02:17:10;;;;;;;0.40;0.40;;;16.20;99.90;;;;;;5011921;28;20226;-69
2023/07/10 02:19:36;;;;;;;0.52;0.47;;;16.20;99.90;;;;;;5011186;28;20716;-68
2023/07/10 02:22:02;;;;;;;0.25;0.25;;;16.10;99.90;;;;;;5012053;28;20281;-68
2023/07/10 02:24:28;;;;;;;0.40;0.40;;;16.20;99.90;;;;;;5011668;28;20296;-68
2023/07/10 02:26:54;;;;;;;0.20;0.20;;;16.20;99.90;;;;;;5012146;28;20206;-69
2023/07/10 02:29:19;;;;;;;0.45;0.40;;;16.30;99.90;;;;;;5011591;28;20198;-68
2023/07/10 02:31:45;;;;;;;0.35;0.35;;;16.30;99.90;;;;;;5011862;28;20571;-68
2023/07/10 02:34:11;;;;;;;0.43;0.43;;;16.40;99.90;;;;;;5011838;28;20661;-69
2023/07/10 02:36:37;;;;;;;0.60;0.50;;;16.30;99.90;;;;;;5011803;28;20673;-68
2023/07/10 02:39:03;;;;;;;0.40;0.40;;;16.30;99.90;;;;;;5011652;28;20207;-68
2023/07/10 02:41:28;;;;;;;0.73;0.60;;;16.30;99.90;;;;;;5011564;28;20195;-68
2023/07/10 02:43:54;;;;;;;0.60;0.60;;;16.40;99.90;;;;;;5011741;28;20227;-67
2023/07/10 02:46:20;;;;;;;0.30;0.30;;;16.50;99.90;;;;;;5009992;28;20249;-67
2023/07/10 02:48:46;;;;;;;0.30;0.30;;;16.50;99.90;;;;;;5011634;28;20639;-67
2023/07/10 02:51:11;;;;;;;0.43;0.43;;;16.60;99.90;;;;;;5010291;28;20202;-68
2023/07/10 02:53:38;;;;;;;0.40;0.40;;;16.60;99.90;;;;;;5011311;28;20880;-68
2023/07/10 02:56:04;;;;;;;0.50;0.50;;;16.70;99.90;;;;;;5010089;28;20203;-68
2023/07/10 02:58:29;;;;;;;0.40;0.38;;;16.70;99.90;;;;;;5011228;28;20257;-67
2023/07/10 03:01:01;;;;;;;0.55;0.50;;;16.80;99.90;;;;;;5011311;28;20928;-68
2023/07/10 03:03:28;;;;;;;0.50;0.50;;;16.80;99.90;;;;;;4999953;28;20228;-68
2023/07/10 03:05:59;;;;;;;0.40;0.40;;;16.80;99.90;;;;;;4993481;28;20276;-68
2023/07/10 03:08:25;;;;;;;0.75;0.75;;;16.90;99.90;;;;;;5010863;28;20191;-67
2023/07/10 03:11:04;;;;;;;1.52;1.05;;;16.90;99.90;;;;;;5011195;28;20199;-67
2023/07/10 03:13:30;;;;;;;1.38;0.75;;;16.90;99.90;;;;;;4993278;28;20257;-68
2023/07/10 03:15:59;;;;;;;0.55;0.55;;;16.90;99.90;;;;;;4993153;28;20290;-68
2023/07/10 03:18:25;;;;;;;0.40;0.40;;;17.00;99.90;;;;;;5010779;28;20203;-67
2023/07/10 03:20:50;;;;;;;0.45;0.45;;;17.00;99.90;;;;;;5011036;28;20252;-67
2023/07/10 03:23:16;;;;;;;0.40;0.40;;;17.00;99.90;;;;;;5009609;28;20194;-67
2023/07/10 03:25:42;;;;;;;0.75;0.40;;;17.20;99.90;;;;;;5010969;28;20285;-67
2023/07/10 03:28:07;;;;;;;0.50;0.50;;;17.20;99.90;;;;;;5010938;28;20607;-67
2023/07/10 03:30:35;;;;;;;0.35;0.35;;;17.20;99.90;;;;;;5010542;28;20195;-68
2023/07/10 03:38:10;;;;;;;0.30;0.30;;;17.20;99.90;;;;;;4991016;28;20271;-67
2023/07/10 03:40:36;;;;;;;0.50;0.50;;;17.30;99.90;;;;;;4989404;28;20246;-67
2023/07/10 03:43:01;;;;;;;0.43;0.43;;;17.40;99.90;;;;;;4990417;28;20195;-68
2023/07/10 03:45:30;;;;;;;0.77;0.65;;;17.50;99.90;;;;;;4991056;28;20184;-67
2023/07/10 03:47:56;;;;;;;0.40;0.40;;;17.60;99.90;;;;;;4991412;28;20557;-66
2023/07/10 03:50:21;;;;;;;0.50;0.50;;;17.60;99.90;;;;;;4991003;28;20200;-67
2023/07/10 03:52:47;;;;;;;0.32;0.32;;;17.70;99.90;;;;;;4991328;28;20282;-67
2023/07/10 03:55:13;;;;;;;0.40;0.40;;;17.70;99.90;;;;;;5006168;28;20200;-67
2023/07/10 03:57:39;;;;;;;0.63;0.63;;;17.70;99.90;;;;;;4990858;28;20651;-67
2023/07/10 04:00:05;;;;;;;0.40;0.40;;;17.80;99.90;;;;;;4990478;28;20215;-67
2023/07/10 04:02:31;;;;;;;0.50;0.50;;;17.90;99.90;;;;;;4991109;28;20317;-67
2023/07/10 04:04:57;;;;;;;0.75;0.63;;;17.90;99.90;;;;;;4990170;28;20226;-67
2023/07/10 04:07:22;;;;;;;0.57;0.57;;;18.00;99.90;;;;;;4990929;28;20196;-67
2023/07/10 04:09:50;;;;;;;0.50;0.50;;;18.10;99.90;;;;;;4990918;28;20262;-67
2023/07/10 04:12:16;;;;;;;0.80;0.73;;;18.00;99.90;;;;;;4990786;28;20204;-67
2023/07/10 04:14:41;;;;;;;0.40;0.40;;;18.00;99.90;;;;;;4990309;28;20196;-67
2023/07/10 04:17:07;;;;;;;0.30;0.30;;;18.00;99.90;;;;;;4991225;28;20192;-67
2023/07/10 04:19:33;;;;;;;0.88;0.88;;;18.00;99.90;;;;;;4994498;28;20214;-67
2023/07/10 04:21:59;;;;;;;1.55;0.80;;;17.90;99.90;;;;;;4994919;28;20198;-67
2023/07/10 04:24:24;;;;;;;0.60;0.60;;;18.00;99.90;;;;;;4994398;28;20203;-67
2023/07/10 04:26:51;;;;;;;0.30;0.30;;;18.20;99.90;;;;;;4994783;28;20673;-67
2023/07/10 04:29:18;;;;;;;0.50;0.50;;;18.20;99.90;;;;;;4996065;28;20216;-66
2023/07/10 04:31:44;;;;;;;0.43;0.43;;;18.20;99.90;;;;;;4996412;28;20203;-67
2023/07/10 04:34:11;;;;;;;0.98;0.85;;;18.30;99.90;;;;;;4994935;28;20202;-67
2023/07/10 04:36:37;;;;;;;0.60;0.60;;;18.40;99.90;;;;;;4992230;28;20235;-67
2023/07/10 04:39:03;;;;;;;0.50;0.50;;;18.50;99.90;;;;;;4994307;28;20207;-67
2023/07/10 04:41:29;;;;;;;0.98;0.60;;;18.50;99.90;;;;;;4994210;28;20195;-68
2023/07/10 04:43:54;;;;;;;0.43;0.43;;;18.70;99.90;;;;;;4995035;28;20428;-68
2023/07/10 04:46:21;;;;;;;1.40;0.80;;;18.90;99.90;;;;;;4974830;28;20215;-67
2023/07/10 04:48:47;;;;;;;0.45;0.45;;;19.00;99.90;;;;;;4975027;28;20211;-67
2023/07/10 04:51:15;;;;;;;0.50;0.50;;;19.00;99.90;;;;;;4974456;28;20702;-67
2023/07/10 04:53:41;;;;;;;1.17;0.85;;;19.00;99.90;;;;;;4989548;28;20211;-67
2023/07/10 04:56:10;;;;;;;0.45;0.45;;;19.10;99.90;;;;;;4974626;28;20204;-67
2023/07/10 04:58:49;;;;;;;1.10;1.00;;;19.00;99.90;;;;;;4974644;28;20762;-67
2023/07/10 05:01:16;;;;;;;0.50;0.50;;;19.00;99.90;;;;;;4974757;28;20401;-67
2023/07/10 05:03:41;;;;;;;1.00;0.75;;;18.90;99.90;;;;;;4974786;28;20204;-67
2023/07/10 05:06:07;;;;;;;0.60;0.60;;;18.90;99.90;;;;;;4974449;28;20199;-67
2023/07/10 05:08:33;;;;;;;1.00;0.60;;;19.00;99.90;;;;;;4985988;28;20684;-67
2023/07/10 05:10:59;;;;;;;0.60;0.52;;;19.20;99.90;;;;;;4976598;28;20283;-67
2023/07/10 05:13:27;;;;;;;3.00;0.85;;;19.40;99.90;;;;;;4993811;28;20453;-67
2023/07/10 05:15:56;;;;;;;0.82;0.68;;;19.60;99.90;;;;;;4993948;28;20215;-67
2023/07/10 05:18:22;;;;;;;0.30;0.30;;;19.80;99.90;;;;;;4980669;28;20208;-67
2023/07/10 05:20:48;;;;;;;0.70;0.70;;;20.00;99.90;;;;;;4974533;28;20199;-67
2023/07/10 05:23:16;;;;;;;0.60;0.60;;;20.20;99.90;;;;;;4974395;28;20240;-67
2023/07/10 05:25:54;;;;;;;0.63;0.60;;;20.40;99.90;;;;;;4976929;28;20203;-67
2023/07/10 05:28:20;;;;;;;0.32;0.32;;;20.60;99.90;;;;;;4992963;28;20617;-67
2023/07/10 05:30:45;;;;;;;0.50;0.50;;;20.70;99.90;;;;;;4987653;28;20203;-67
2023/07/10 05:33:11;;;;;;;2.13;0.85;;;20.70;99.90;;;;;;4981643;28;20200;-67
2023/07/10 05:35:37;;;;;;;2.13;0.80;;;20.80;99.90;;;;;;4974079;28;20666;-68
2023/07/10 05:38:02;;;;;;;0.40;0.40;;;20.80;99.90;;;;;;4990950;28;20359;-68
2023/07/10 05:40:28;;;;;;;0.65;0.65;;;20.80;99.90;;;;;;4992548;28;20191;-67
2023/07/10 05:42:54;;;;;;;1.40;0.60;;;20.80;99.90;;;;;;4992814;28;20188;-68
2023/07/10 05:45:19;;;;;;;0.73;0.50;;;20.80;99.90;;;;;;4992500;28;20270;-68
2023/07/10 05:47:45;;;;;;;0.73;0.73;;;21.00;99.90;;;;;;4986667;28;20320;-67
2023/07/10 05:50:11;;;;;;;0.35;0.35;;;21.30;99.90;;;;;;4972917;28;20208;-67
2023/07/10 05:52:36;;;;;;;0.43;0.43;;;21.40;99.90;;;;;;4972681;28;20200;-67
2023/07/10 05:55:02;;;;;;;0.43;0.43;;;21.50;99.90;;;;;;4972928;28;20192;-67
2023/07/10 05:57:28;;;;;;;0.40;0.40;;;21.50;99.90;;;;;;4972463;28;20200;-67
2023/07/10 05:59:54;;;;;;;0.47;0.47;;;21.70;99.90;;;;;;4971365;28;20216;-67
2023/07/10 06:02:19;;;;;;;1.13;0.60;;;21.70;99.90;;;;;;4972303;28;20192;-67
2023/07/10 06:04:45;;;;;;;3.03;0.70;;;21.80;99.90;;;;;;4972533;28;20663;-67
2023/07/10 06:07:11;;;;;;;0.73;0.73;;;21.80;99.90;;;;;;4972519;28;20188;-68
2023/07/10 06:09:36;;;;;;;0.82;0.70;;;21.70;99.90;;;;;;4972276;28;20659;-68
2023/07/10 06:12:02;;;;;;;0.40;0.40;;;21.80;99.90;;;;;;4972638;28;20247;-68
2023/07/10 06:14:28;;;;;;;0.93;0.75;;;21.90;99.90;;;;;;4972159;28;20188;-67
2023/07/10 06:16:54;;;;;;;1.10;0.90;;;22.10;99.90;;;;;;4972117;28;20203;-67
2023/07/10 06:19:20;;;;;;;1.70;1.00;;;22.40;99.90;;;;;;4972088;28;20523;-67
2023/07/10 06:21:46;;;;;;;0.73;0.60;;;22.50;99.90;;;;;;4973676;28;20196;-67
2023/07/10 06:24:12;;;;;;;0.65;0.65;;;22.60;99.90;;;;;;4991947;28;20200;-68
2023/07/10 06:26:38;;;;;;;0.70;0.52;;;22.50;99.90;;;;;;4991347;28;20740;-67
2023/07/10 06:29:04;;;;;;;1.02;0.90;;;22.50;99.90;;;;;;4982353;28;20204;-67
2023/07/10 06:31:29;;;;;;;0.50;0.50;;;22.40;99.90;;;;;;4971929;28;20245;-67
2023/07/10 06:33:55;;;;;;;0.60;0.50;;;22.40;99.90;;;;;;4972331;28;20207;-67
2023/07/10 06:36:21;;;;;;;0.85;0.60;;;22.60;99.90;;;;;;4932860;28;1418821;-67
2023/07/10 06:38:46;;;;;;;0.82;0.68;;;22.80;99.90;;;;;;5031634;28;20275;-67
2023/07/10 06:41:13;;;;;;;29.25;1.15;;;23.10;99.90;;;;;;5031343;28;20567;-67
2023/07/10 06:43:39;;;;;;;0.45;0.45;;;23.20;99.90;;;;;;5027509;28;20209;-67
2023/07/10 06:46:05;;;;;;;0.95;0.57;;;23.20;99.90;;;;;;5011064;28;20203;-67
2023/07/10 06:48:30;;;;;;;0.82;0.73;;;23.30;99.90;;;;;;5011568;28;20203;-67
2023/07/10 06:50:56;;;;;;;0.68;0.63;;;23.30;99.90;;;;;;5011797;28;20203;-67
2023/07/10 06:53:24;;;;;;;3.58;1.20;;;23.40;99.90;;;;;;5011311;28;20199;-68
2023/07/10 06:55:54;;;;;;;0.55;0.55;;;23.40;99.90;;;;;;5011647;28;20195;-68
2023/07/10 06:58:20;;;;;;;0.50;0.50;;;23.30;99.90;;;;;;5011672;28;20674;-68
2023/07/10 07:00:45;;;;;;;0.60;0.60;;;23.30;99.90;;;;;;5011703;28;20282;-67
2023/07/10 07:03:11;;;;;;;0.43;0.43;;;23.40;99.90;;;;;;5011691;28;20187;-68
2023/07/10 07:05:39;;;;;;;0.40;0.40;;;23.30;99.90;;;;;;5010798;28;20218;-67
2023/07/10 07:08:05;;;;;;;0.82;0.77;;;23.30;99.90;;;;;;5011796;28;20241;-67
2023/07/10 07:10:32;;;;;;;0.73;0.70;;;23.20;99.90;;;;;;5020035;28;20214;-67
2023/07/10 07:12:58;;;;;;;1.17;0.80;;;23.40;99.90;;;;;;5031351;28;20193;-69
2023/07/10 07:15:24;;;;;;;0.52;0.47;;;23.30;99.90;;;;;;5030433;28;20198;-67
2023/07/10 07:17:50;;;;;;;0.40;0.40;;;23.30;99.90;;;;;;5030809;28;20245;-67
2023/07/10 07:20:16;;;;;;;1.20;0.73;;;23.50;99.90;;;;;;5010966;28;20699;-67
2023/07/10 07:22:42;;;;;;;0.52;0.52;;;23.90;99.90;;;;;;5011402;28;20199;-67
2023/07/10 07:25:08;;;;;;;0.65;0.65;;;24.20;99.90;;;;;;5011011;28;20715;-67
2023/07/10 07:27:34;;;;;;;0.90;0.90;;;24.30;99.90;;;;;;5011108;28;20195;-67
2023/07/10 07:30:04;;;;;;;0.75;0.47;;;24.60;99.90;;;;;;5011397;28;20681;-67
2023/07/10 07:32:30;;;;;;;0.43;0.43;;;24.90;99.90;;;;;;4993355;28;20252;-67
2023/07/10 07:34:55;;;;;;;0.52;0.47;;;24.90;99.90;;;;;;5010983;28;20198;-67
2023/07/10 07:37:21;;;;;;;0.63;0.50;;;25.10;99.90;;;;;;5006317;28;20226;-69
2023/07/10 07:39:47;;;;;;;0.35;0.35;;;25.30;99.90;;;;;;5011095;28;20218;-68
2023/07/10 07:42:13;;;;;;;0.45;0.45;;;25.40;99.90;;;;;;4997868;28;20187;-69
2023/07/10 07:44:38;;;;;;;0.52;0.40;;;25.50;99.90;;;;;;4991083;28;20200;-69
2023/07/10 07:47:04;;;;;;;5.57;1.05;;;25.60;99.90;;;;;;4991488;28;20188;-69
2023/07/10 07:49:30;;;;;;;0.68;0.63;;;25.70;99.90;;;;;;4991031;28;20222;-69
2023/07/10 07:51:56;;;;;;;1.33;0.73;;;26.20;99.90;;;;;;4991295;28;20199;-69
2023/07/10 07:54:21;;;;;;;0.30;0.30;;;26.30;99.90;;;;;;4994931;28;20247;-68
2023/07/10 07:56:47;;;;;;;0.73;0.63;;;26.50;99.90;;;;;;4994986;28;20208;-68
2023/07/10 07:59:13;;;;;;;0.47;0.47;;;26.50;99.90;;;;;;4995075;28;20623;-68
2023/07/10 08:01:39;;;;;;;0.70;0.68;;;26.50;99.90;;;;;;4994871;28;20565;-67
2023/07/10 08:04:05;;;;;;;0.60;0.47;;;26.80;99.90;;;;;;4994892;28;20586;-67
2023/07/10 08:06:32;;;;;;;0.50;0.50;;;26.90;99.90;;;;;;4994712;28;20188;-67
2023/07/10 08:08:58;;;;;;;0.40;0.40;;;26.80;99.90;;;;;;4995022;28;20266;-66
2023/07/10 08:11:26;;;;;;;0.40;0.40;;;26.40;99.90;;;;;;4994702;28;20623;-67
2023/07/10 08:13:52;;;;;;;0.57;0.57;;;26.20;99.90;;;;;;4995034;28;20662;-68
2023/07/10 08:16:19;;;;;;;0.75;0.60;;;26.30;99.90;;;;;;5012637;28;20217;-68
2023/07/10 08:18:45;;;;;;;0.57;0.57;;;26.60;99.90;;;;;;4994241;28;20210;-67
2023/07/10 08:21:12;;;;;;;0.20;0.20;;;26.80;99.90;;;;;;4996491;28;20560;-67
2023/07/10 08:23:38;;;;;;;0.35;0.35;;;27.00;99.90;;;;;;5014335;28;20198;-67
2023/07/10 08:26:05;;;;;;;0.45;0.40;;;27.10;99.90;;;;;;5014302;28;20186;-67
2023/07/10 08:28:31;;;;;;;0.93;0.50;;;27.00;99.90;;;;;;5013893;28;20202;-67
2023/07/10 08:30:56;;;;;;;1.95;0.90;;;27.30;99.90;;;;;;5014472;28;20568;-68
2023/07/10 08:33:22;;;;;;;1.33;0.68;;;27.30;99.90;;;;;;5013858;28;20198;-67
2023/07/10 08:35:59;;;;;;;1.05;0.40;;;27.40;99.90;;;;;;5014178;28;20705;-67
2023/07/10 08:38:25;;;;;;;0.57;0.57;;;27.30;99.90;;;;;;4998977;28;20341;-67
2023/07/10 08:40:54;;;;;;;0.20;0.20;;;27.20;99.90;;;;;;4994303;28;20251;-67
2023/07/10 08:43:20;;;;;;;0.30;0.30;;;27.50;99.90;;;;;;4994046;28;20234;-68
2023/07/10 08:45:47;;;;;;;0.90;0.57;;;27.90;99.90;;;;;;4994446;28;20661;-69
2023/07/10 08:48:31;;;;;;;1.15;0.68;;;27.80;99.90;;;;;;4993073;28;20207;-69
2023/07/10 08:51:03;;;;;;;0.38;0.38;;;28.20;99.90;;;;;;4994284;28;20202;-69
2023/07/10 08:53:32;;;;;;;0.70;0.60;;;28.00;99.90;;;;;;4993982;28;20696;-69
2023/07/10 08:56:08;;;;;;;0.20;0.20;;;28.00;99.90;;;;;;4994369;28;20195;-70
2023/07/10 08:58:37;;;;;;;0.82;0.40;;;28.10;99.90;;;;;;4993850;28;20682;-69
2023/07/10 09:01:11;;;;;;;0.60;0.45;;;28.00;99.90;;;;;;4994140;28;20191;-69
2023/07/10 09:03:41;;;;;;;0.45;0.40;;;27.90;99.90;;;;;;4993816;28;20197;-68
2023/07/10 09:06:28;;;;;;;0.30;0.30;;;28.00;99.90;;;;;;4994036;28;20193;-68
2023/07/10 09:08:55;;;;;;;0.25;0.25;;;28.20;99.90;;;;;;4976703;28;20230;-68
2023/07/10 09:11:23;;;;;;;0.95;0.43;;;28.60;99.90;;;;;;5002053;28;20719;-68
2023/07/10 09:14:24;;;;;;;0.32;0.32;;;28.80;99.90;;;;;;5013573;28;20278;-68
2023/07/10 09:16:53;;;;;;;1.25;0.68;;;28.40;99.90;;;;;;5012026;28;20683;-67
2023/07/10 09:19:20;;;;;;;0.25;0.25;;;28.60;99.90;;;;;;4993867;28;20202;-68
2023/07/10 09:21:46;;;;;;;0.28;0.28;;;28.70;99.90;;;;;;4992413;28;20286;-68
2023/07/10 09:24:22;;;;;;;0.35;0.35;;;28.80;99.90;;;;;;4993706;28;20195;-69
2023/07/10 09:26:48;;;;;;;0.50;0.50;;;28.60;99.90;;;;;;4993960;28;20665;-69
2023/07/10 09:29:25;;;;;;;0.17;0.17;;;28.50;99.90;;;;;;4993505;28;20195;-69
2023/07/10 09:32:10;;;;;;;0.45;0.30;;;28.50;99.90;;;;;;4993638;28;20654;-69
2023/07/10 09:34:51;;;;;;;1.00;0.65;;;28.90;99.90;;;;;;4991743;28;20203;-69
2023/07/10 09:37:21;;;;;;;0.65;0.32;;;29.00;99.90;;;;;;5000418;28;20365;-69
2023/07/10 09:39:47;;;;;;;0.30;0.30;;;28.90;99.90;;;;;;4993239;28;20210;-69
2023/07/10 09:42:19;;;;;;;0.38;0.35;;;28.70;99.80;;;;;;4993558;28;20189;-69
2023/07/10 09:44:53;;;;;;;0.32;0.32;;;28.40;99.90;;;;;;4993575;28;20563;-68
2023/07/10 09:47:20;;;;;;;0.20;0.20;;;28.60;99.90;;;;;;4993649;28;20202;-68
2023/07/10 09:49:56;;;;;;;3.28;0.93;;;28.80;99.40;;;;;;5008021;28;20203;-69
2023/07/10 09:52:40;;;;;;;0.32;0.32;;;29.00;99.60;;;;;;4992722;28;20191;-68
2023/07/10 09:55:13;;;;;;;1.17;0.50;;;29.00;98.90;;;;;;4993275;28;20211;-69
2023/07/10 09:57:53;;;;;;;0.30;0.30;;;28.70;96.90;;;;;;4992724;28;20257;-68
2023/07/10 10:00:20;;;;;;;1.50;0.77;;;28.40;99.90;;;;;;4993076;28;20273;-68
2023/07/10 10:03:07;;;;;;;0.28;0.28;;;28.20;99.20;;;;;;4993174;28;20232;-68
2023/07/10 10:05:33;;;;;;;0.20;0.20;;;28.10;97.50;;;;;;4992869;28;20214;-68
2023/07/10 10:08:11;;;;;;;0.35;0.35;;;28.30;96.50;;;;;;5004247;28;20253;-69
2023/07/10 10:10:37;;;;;;;0.30;0.30;;;28.20;97.30;;;;;;5012176;28;20665;-69
2023/07/10 10:13:29;;;;;;;0.30;0.30;;;28.20;98.30;;;;;;5011375;28;20194;-69
2023/07/10 10:16:16;;;;;;;0.80;0.38;;;28.40;97.50;;;;;;4990725;28;20262;-68
2023/07/10 10:18:52;;;;;;;0.15;0.15;;;28.70;98.10;;;;;;4992187;28;20227;-68
2023/07/10 10:21:20;;;;;;;1.25;0.60;;;28.70;94.50;;;;;;4992756;28;20270;-68
2023/07/10 10:23:50;;;;;;;0.93;0.50;;;28.50;94.80;;;;;;4992894;28;20669;-68
2023/07/10 10:26:38;;;;;;;0.28;0.28;;;28.50;95.50;;;;;;4991293;28;20654;-69
2023/07/10 10:29:38;;;;;;;0.15;0.15;;;28.50;95.90;;;;;;4992497;28;20191;-69
2023/07/10 10:32:37;;;;;;;4.38;0.70;;;28.70;97.10;;;;;;4973187;28;20275;-69
2023/07/10 10:35:30;;;;;;;1.02;0.60;;;29.00;96.90;;;;;;4972979;28;20663;-68
2023/07/10 10:38:15;;;;;;;0.43;0.40;;;28.90;97.00;;;;;;5017259;28;20316;-67
2023/07/10 10:41:05;;;;;;;0.63;0.63;;;28.40;96.30;;;;;;5032244;28;20205;-68
2023/07/10 10:43:36;;;;;;;0.40;0.40;;;28.30;96.30;;;;;;5013406;28;20202;-68
2023/07/10 10:46:23;;;;;;;1.08;0.70;;;28.40;97.20;;;;;;5011621;28;20202;-68
2023/07/10 10:49:15;;;;;;;0.20;0.20;;;28.80;97.40;;;;;;5029365;28;20690;-68
2023/07/10 10:51:56;;;;;;;0.47;0.43;;;29.10;97.80;;;;;;5031308;28;20614;-68
2023/07/10 10:54:42;;;;;;;0.85;0.73;;;29.90;98.70;;;;;;5031047;28;20189;-68
2023/07/10 10:57:30;;;;;;;0.70;0.70;;;29.50;96.00;;;;;;5031211;28;20699;-68
2023/07/10 11:00:17;;;;;;;1.15;0.50;;;29.40;96.50;;;;;;5031742;28;20255;-68
2023/07/10 11:03:07;;;;;;;0.60;0.52;;;29.60;96.90;;;;;;5031250;28;20623;-68
2023/07/10 11:05:48;;;;;;;0.47;0.47;;;30.00;96.70;;;;;;5008703;28;20202;-68
2023/07/10 11:08:20;;;;;;;0.40;0.38;;;29.80;94.90;;;;;;5011493;28;20700;-68
2023/07/10 11:10:49;;;;;;;0.30;0.30;;;29.30;96.10;;;;;;4993503;28;20533;-68
2023/07/10 11:13:35;;;;;;;0.43;0.35;;;29.60;96.00;;;;;;5011420;28;20190;-68
2023/07/10 11:16:03;;;;;;;0.35;0.35;;;29.10;95.80;;;;;;5011422;28;20209;-68
2023/07/10 11:18:30;;;;;;;0.60;0.60;;;29.60;95.10;;;;;;5010997;28;20252;-68
2023/07/10 11:20:57;;;;;;;1.20;0.40;;;30.10;96.00;;;;;;5011387;28;20601;-68
2023/07/10 11:23:41;;;;;;;0.55;0.45;;;30.20;95.10;;;;;;5011353;28;20186;-68
2023/07/10 11:26:16;;;;;;;4.47;0.75;;;29.80;94.10;;;;;;5010849;28;20244;-68
2023/07/10 11:29:08;;;;;;;0.22;0.22;;;29.70;95.10;;;;;;5009717;28;20198;-68
2023/07/10 11:31:36;;;;;;;0.73;0.57;;;29.30;95.10;;;;;;5010779;28;20348;-68
2023/07/10 11:34:05;;;;;;;0.47;0.35;;;29.20;94.80;;;;;;5011160;28;20263;-69
2023/07/10 11:36:36;;;;;;;0.28;0.28;;;29.30;93.70;;;;;;5012188;28;20928;-69
2023/07/10 11:39:11;;;;;;;0.55;0.50;;;29.60;95.30;;;;;;5030870;28;20221;-68
2023/07/10 11:41:42;;;;;;;0.85;0.30;;;29.90;94.60;;;;;;5022799;28;20692;-68
2023/07/10 11:44:31;;;;;;;1.13;0.32;;;30.30;94.70;;;;;;5011222;28;20272;-68
2023/07/10 11:47:05;;;;;;;0.43;0.40;;;30.80;94.20;;;;;;5011043;28;20603;-68
2023/07/10 11:50:26;;;;;;;0.20;0.20;;;31.20;95.10;;;;;;5010625;28;20625;-69
2023/07/10 11:53:20;;;;;;;0.25;0.25;;;31.50;95.20;;;;;;4930588;29;20209;-68
2023/07/10 11:55:59;;;;;;;0.30;0.30;;;30.70;94.60;;;;;;4931406;29;20309;-68
2023/07/10 11:58:30;;;;;;;0.30;0.30;;;30.70;95.50;;;;;;4930550;29;20292;-68
2023/07/10 12:01:03;;;;;;;0.47;0.35;;;30.50;93.40;;;;;;4945744;29;20232;-68
2023/07/10 12:03:34;;;;;;;0.40;0.40;;;30.50;95.60;;;;;;4950118;29;20188;-68
2023/07/10 12:06:00;;;;;;;0.40;0.40;;;30.60;94.50;;;;;;4934871;29;20683;-67
2023/07/10 12:08:29;;;;;;;0.30;0.30;;;30.50;94.30;;;;;;4932268;29;20219;-68
2023/07/10 12:10:55;;;;;;;0.35;0.35;;;30.40;93.30;;;;;;4930958;29;20207;-68
2023/07/10 12:13:27;;;;;;;0.20;0.20;;;30.00;94.40;;;;;;4931009;29;20209;-67
2023/07/10 12:15:55;;;;;;;0.35;0.35;;;29.70;94.70;;;;;;4931037;29;20256;-68
2023/07/10 12:18:31;;;;;;;1.60;0.57;;;29.30;96.00;;;;;;4930543;29;20280;-69
2023/07/10 12:21:00;;;;;;;0.30;0.30;;;29.10;94.20;;;;;;4931186;29;20208;-68
2023/07/10 12:23:26;;;;;;;0.65;0.57;;;29.00;95.20;;;;;;4930725;29;20215;-68
2023/07/10 12:25:55;;;;;;;0.35;0.20;;;28.80;94.30;;;;;;4945048;28;20208;-68
2023/07/10 12:28:26;;;;;;;0.40;0.40;;;28.50;97.00;;;;;;4989698;28;20210;-68
2023/07/10 12:30:54;;;;;;;1.75;0.70;;;28.60;95.20;;;;;;4990178;28;20199;-68
2023/07/10 12:33:48;;;;;;;0.30;0.30;;;29.10;95.90;;;;;;4990928;28;20209;-69
2023/07/10 12:36:18;;;;;;;0.45;0.40;;;29.80;94.20;;;;;;4991221;28;20215;-68
2023/07/10 12:38:44;;;;;;;0.90;0.60;;;30.30;93.90;;;;;;5011387;28;20211;-69
2023/07/10 12:41:10;;;;;;;0.32;0.32;;;30.50;94.00;;;;;;5014415;28;20186;-69
2023/07/10 12:43:36;;;;;;;0.60;0.60;;;30.10;92.80;;;;;;5029334;28;20200;-68
2023/07/10 12:46:12;;;;;;;0.88;0.50;;;29.50;95.50;;;;;;5033915;28;20224;-68
2023/07/10 12:48:38;;;;;;;2.67;0.70;;;28.90;95.90;;;;;;5033642;28;20708;-68
2023/07/10 12:51:05;;;;;;;0.15;0.15;;;28.20;95.20;;;;;;5016063;28;20890;-67
2023/07/10 12:53:38;;;;;;;0.20;0.20;;;28.00;97.00;;;;;;5033561;28;20194;-67
2023/07/10 12:56:23;;;;;;;0.60;0.47;;;27.60;96.80;;;;;;5027575;28;20202;-68
2023/07/10 12:58:51;;;;;;;0.20;0.20;;;27.30;96.80;;;;;;5012514;28;20237;-68
2023/07/10 13:01:22;;;;;;;1.15;0.70;;;27.30;97.70;;;;;;5013778;28;20210;-68
2023/07/10 13:04:03;;;;;;;0.45;0.45;;;27.40;97.10;;;;;;5013654;28;20245;-68
2023/07/10 13:06:31;;;;;;;0.55;0.55;;;27.10;97.40;;;;;;5013340;28;20815;-68